Time;durP1;ratioP1;P1;durP2;ratioP2;P2;SDS_P1;SDS_P2;PMS_P1;PMS_P2;Temp;Humidity;BMP_temperature;BMP_pressure;BME280_temperature;BME280_humidity;BME280_pressure;Samples;Min_cycle;Max_cycle;Signal;HPM_P1;HPM_P2
2022/12/10 00:04:21;;;;;;;10.77;4.78;;;;;;;13.40;58.35;96850.94;10207875;28;20137;-56
2022/12/10 00:09:20;;;;;;;10.10;3.63;;;;;;;13.47;58.41;96856.81;10207866;28;20061;-57
2022/12/10 00:14:19;;;;;;;10.20;4.28;;;;;;;13.56;58.45;96848.78;10207933;28;20054;-56
2022/12/10 00:19:18;;;;;;;13.77;4.03;;;;;;;13.66;57.97;96849.41;10207387;28;20030;-56
2022/12/10 00:24:17;;;;;;;12.48;4.05;;;;;;;13.70;57.91;96844.06;10206987;28;20031;-57
2022/12/10 00:29:16;;;;;;;13.50;4.47;;;;;;;13.69;58.01;96826.72;10207212;28;20118;-56
2022/12/10 00:34:15;;;;;;;12.10;4.13;;;;;;;13.59;58.05;96845.28;10206157;28;20041;-56
2022/12/10 00:39:18;;;;;;;13.50;4.55;;;;;;;13.59;58.53;96843.50;10206911;28;20552;-56
2022/12/10 00:44:17;;;;;;;12.20;3.95;;;;;;;13.52;58.16;96819.34;10206216;28;20122;-56
2022/12/10 00:49:16;;;;;;;14.40;4.43;;;;;;;13.54;58.29;96833.22;10206162;28;20062;-56
2022/12/10 00:54:15;;;;;;;;;;;;;;;13.54;58.32;96846.25;10206901;28;20071;-56
2022/12/10 00:59:13;;;;;;;9.25;3.85;;;;;;;13.63;58.10;96839.06;10206085;28;19929;-56
2022/12/10 01:04:17;;;;;;;8.90;4.10;;;;;;;13.72;58.38;96833.59;10205350;28;20129;-56
2022/12/10 01:09:23;;;;;;;9.05;4.13;;;;;;;13.72;57.84;96830.97;10205860;28;20520;-56
2022/12/10 01:14:27;;;;;;;10.98;4.47;;;;;;;13.74;57.58;96823.97;10205114;28;20070;-56
2022/12/10 01:19:26;;;;;;;9.63;3.60;;;;;;;13.87;57.25;96833.16;10205093;28;20523;-57
2022/12/10 01:24:28;;;;;;;9.10;3.72;;;;;;;13.92;56.67;96820.84;10205454;28;20519;-58
2022/12/10 01:29:27;;;;;;;11.00;3.97;;;;;;;14.09;56.42;96830.75;10204634;28;20066;-58
2022/12/10 01:34:26;;;;;;;10.57;4.28;;;;;;;14.10;56.12;96829.00;10205334;28;20078;-58
2022/12/10 01:39:25;;;;;;;;;;;;;;;14.20;56.30;96835.69;10219950;28;20066;-58
2022/12/10 01:44:24;;;;;;;10.98;3.78;;;;;;;14.13;56.29;96839.38;10205224;28;20315;-55
2022/12/10 01:49:33;;;;;;;8.88;3.63;;;;;;;14.17;56.16;96843.56;10204410;28;20511;-58
2022/12/10 01:54:35;;;;;;;10.27;4.25;;;;;;;14.16;56.21;96821.00;10204683;28;20062;-58
2022/12/10 01:59:36;;;;;;;11.68;4.18;;;;;;;14.20;55.85;96817.41;10204242;28;20600;-58
2022/12/10 02:04:59;;;;;;;13.32;4.43;;;;;;;14.28;55.75;96830.22;10202969;28;20625;-55
2022/12/10 02:10:12;;;;;;;9.75;4.07;;;;;;;14.28;55.86;96840.66;10203997;28;20077;-55
2022/12/10 02:15:24;;;;;;;15.68;4.47;;;;;;;14.26;55.99;96826.78;10204944;28;20106;-56
2022/12/10 02:20:30;;;;;;;8.02;3.78;;;;;;;14.17;55.86;96825.31;10203562;28;20070;-56
2022/12/10 02:25:56;;;;;;;10.80;4.03;;;;;;;14.15;56.06;96819.31;10203564;28;20472;-56
2022/12/10 02:30:56;;;;;;;11.45;4.07;;;;;;;14.11;56.09;96805.47;10204170;28;20144;-56
2022/12/10 02:35:58;;;;;;;12.80;4.82;;;;;;;14.14;55.82;96812.38;10203515;28;20134;-56
2022/12/10 02:41:02;;;;;;;9.77;4.13;;;;;;;14.08;56.09;96802.97;10203551;28;20070;-56
2022/12/10 02:46:04;;;;;;;10.80;4.13;;;;;;;14.11;56.15;96791.59;10203259;28;20073;-56
2022/12/10 02:51:03;;;;;;;7.05;3.67;;;;;;;14.08;56.45;96795.16;10203179;28;20058;-56
2022/12/10 02:56:13;;;;;;;;;;;;;;;14.11;56.54;96807.25;10204184;28;20164;-56
2022/12/10 03:01:25;;;;;;;12.73;4.50;;;;;;;14.06;56.64;96803.94;10209640;28;20032;-56
2022/12/10 03:06:37;;;;;;;10.18;3.95;;;;;;;14.04;57.00;96808.34;10209704;28;20113;-56
2022/12/10 03:11:39;;;;;;;11.20;5.07;;;;;;;14.07;56.63;96810.84;10209867;28;20495;-56
2022/12/10 03:16:43;;;;;;;11.30;4.60;;;;;;;14.07;56.78;96808.22;10209668;28;20130;-56
2022/12/10 03:21:44;;;;;;;7.72;3.65;;;;;;;14.10;56.36;96805.53;10209543;28;20467;-56
2022/12/10 03:26:47;;;;;;;11.10;3.97;;;;;;;14.07;56.42;96795.19;10209202;28;20054;-56
2022/12/10 03:31:47;;;;;;;12.05;3.72;;;;;;;14.05;56.69;96800.44;10208930;28;20062;-58
2022/12/10 03:36:47;;;;;;;8.93;3.45;;;;;;;14.11;56.29;96786.38;10209152;28;20069;-58
2022/12/10 03:41:46;;;;;;;11.90;4.85;;;;;;;14.13;56.97;96789.78;10209284;28;20142;-58
2022/12/10 03:46:45;;;;;;;;;;;;;;;14.09;56.93;96793.41;10208709;28;20453;-58
2022/12/10 03:51:44;;;;;;;8.88;4.20;;;;;;;14.09;57.24;96789.03;10208967;28;19965;-58
2022/12/10 03:56:43;;;;;;;10.25;3.80;;;;;;;14.02;57.34;96787.50;10208011;28;20137;-58
2022/12/10 04:01:42;;;;;;;10.05;3.83;;;;;;;13.92;58.02;96784.31;10208473;28;20130;-58
2022/12/10 04:06:41;;;;;;;;;;;;;;;13.92;58.95;96775.66;10209180;28;20069;-58
2022/12/10 04:11:40;;;;;;;10.77;3.40;;;;;;;13.88;59.16;96776.63;10206440;28;19964;-58
2022/12/10 04:16:40;;;;;;;11.73;3.92;;;;;;;13.89;59.17;96786.16;10207873;28;20177;-58
2022/12/10 04:27:02;;;;;;;10.43;4.05;;;;;;;13.82;59.42;96800.28;10207827;28;20866;-58
2022/12/10 04:32:01;;;;;;;11.23;4.18;;;;;;;13.80;59.39;96808.16;10207533;28;20062;-58
2022/12/10 04:37:02;;;;;;;8.73;3.50;;;;;;;13.81;59.18;96820.28;10207979;28;20489;-58
2022/12/10 04:42:01;;;;;;;8.32;3.95;;;;;;;13.83;59.40;96815.88;10204825;28;20081;-58
2022/12/10 04:47:00;;;;;;;9.40;3.85;;;;;;;13.87;59.05;96822.72;10206255;28;20023;-58
2022/12/10 04:51:59;;;;;;;;;;;;;;;13.83;59.89;96834.13;10207794;28;20058;-58
2022/12/10 04:56:58;;;;;;;8.05;3.30;;;;;;;13.77;59.83;96822.16;10205667;28;20020;-58
2022/12/10 05:01:57;;;;;;;10.60;3.60;;;;;;;13.82;59.80;96818.53;10205856;28;20057;-58
2022/12/10 05:06:56;;;;;;;;;;;;;;;13.69;59.42;96789.34;10206823;28;20480;-55
2022/12/10 05:11:55;;;;;;;9.32;3.00;;;;;;;13.87;59.60;96829.72;10206001;28;20316;-56
2022/12/10 05:16:54;;;;;;;8.30;3.85;;;;;;;13.89;58.99;96813.09;10205004;28;20052;-56
2022/12/10 05:27:10;;;;;;;11.25;3.80;;;;;;;13.95;59.03;96818.13;10205844;28;20066;-58
2022/12/10 05:32:09;;;;;;;6.95;3.80;;;;;;;13.93;59.80;96814.72;10205331;28;20034;-56
2022/12/10 05:37:08;;;;;;;7.32;3.17;;;;;;;13.92;59.62;96813.00;10205310;28;20031;-56
2022/12/10 05:42:07;;;;;;;6.60;3.15;;;;;;;13.89;59.87;96817.44;10205261;28;21185;-56
2022/12/10 05:47:06;;;;;;;10.10;3.60;;;;;;;13.85;60.37;96816.69;10204833;28;20031;-56
2022/12/10 05:52:05;;;;;;;7.30;3.63;;;;;;;13.85;60.66;96808.03;10204225;28;20359;-56
2022/12/10 05:57:04;;;;;;;11.88;4.10;;;;;;;13.86;60.21;96813.19;10202852;28;20037;-56
2022/12/10 06:02:03;;;;;;;11.07;4.40;;;;;;;13.90;60.02;96809.59;10200435;28;20047;-56
2022/12/10 06:07:02;;;;;;;10.18;4.63;;;;;;;13.86;60.12;96807.97;10200550;28;20031;-56
2022/12/10 06:12:01;;;;;;;10.10;4.07;;;;;;;13.88;60.37;96814.00;10204039;28;20062;-56
2022/12/10 06:17:00;;;;;;;6.28;3.03;;;;;;;13.81;60.51;96825.50;10204221;28;20156;-56
2022/12/10 06:21:58;;;;;;;6.97;3.17;;;;;;;13.78;61.15;96839.47;10203963;28;20035;-56
2022/12/10 06:26:57;;;;;;;5.00;3.05;;;;;;;13.84;60.96;96835.84;10203917;28;20465;-56
2022/12/10 06:31:56;;;;;;;5.93;3.35;;;;;;;13.84;60.93;96833.22;10203798;28;20039;-56
2022/12/10 06:36:55;;;;;;;7.30;3.60;;;;;;;13.78;61.34;96839.47;10211087;28;20122;-56
2022/12/10 06:41:54;;;;;;;8.77;3.08;;;;;;;13.87;60.88;96834.91;10211560;28;20436;-57
2022/12/10 06:46:53;;;;;;;6.10;3.25;;;;;;;13.93;60.59;96825.13;10210967;28;20436;-56
2022/12/10 06:51:52;;;;;;;11.05;3.50;;;;;;;13.90;60.73;96820.03;10210980;28;20374;-57
2022/12/10 06:56:51;;;;;;;10.77;3.30;;;;;;;13.93;60.50;96817.31;10211342;28;20031;-58
2022/12/10 07:01:50;;;;;;;11.13;3.97;;;;;;;13.96;60.35;96825.06;10210344;28;20571;-58
2022/12/10 07:06:49;;;;;;;7.63;3.20;;;;;;;13.97;60.39;96836.34;10210900;28;20544;-57
2022/12/10 07:11:48;;;;;;;13.65;4.20;;;;;;;13.97;60.55;96831.97;10210779;28;20029;-58
2022/12/10 07:16:47;;;;;;;16.83;4.85;;;;;;;14.04;60.71;96830.06;10211318;28;20576;-58
2022/12/10 07:21:46;;;;;;;12.45;6.03;;;;;;;14.07;60.60;96822.13;10210109;28;20457;-58
2022/12/10 07:26:46;;;;;;;20.77;8.52;;;;;;;14.08;60.47;96818.63;10209830;28;20142;-57
2022/12/10 07:31:45;;;;;;;10.90;5.25;;;;;;;14.09;60.42;96827.31;10209613;28;20062;-58
2022/12/10 07:36:44;;;;;;;22.15;10.63;;;;;;;14.13;60.77;96826.31;10208941;28;20121;-58
2022/12/10 07:41:51;;;;;;;;;;;;;;;14.12;60.74;96830.66;10210311;28;20118;-58
2022/12/10 07:46:50;;;;;;;7.50;4.40;;;;;;;14.16;60.52;96803.59;10208518;28;20332;-58
2022/12/10 07:51:50;;;;;;;11.13;5.70;;;;;;;14.15;61.04;96814.09;10208651;28;20129;-56
2022/12/10 07:56:49;;;;;;;12.25;7.32;;;;;;;14.16;61.06;96819.25;10208854;28;20544;-58
2022/12/10 08:01:49;;;;;;;;;;;;;;;14.19;60.70;96803.50;10208386;28;20053;-58
2022/12/10 08:06:48;;;;;;;42.47;21.65;;;;;;;14.25;61.10;96794.63;10208260;28;19961;-58
2022/12/10 08:11:47;;;;;;;18.15;12.63;;;;;;;14.40;60.86;96788.94;10208313;28;20042;-58
2022/12/10 08:16:45;;;;;;;7.63;5.80;;;;;;;14.43;60.75;96769.72;10207705;28;20568;-58
2022/12/10 08:21:44;;;;;;;11.07;6.95;;;;;;;14.46;60.25;96781.81;10207793;28;20373;-56
2022/12/10 08:26:43;;;;;;;6.95;4.85;;;;;;;14.46;60.64;96776.59;10208349;28;20042;-56
2022/12/10 08:31:42;;;;;;;18.75;13.20;;;;;;;14.49;60.77;96771.25;10206552;28;20134;-56
2022/12/10 08:36:42;;;;;;;11.00;6.13;;;;;;;14.61;60.80;96786.53;10205935;28;20041;-57
2022/12/10 08:41:42;;;;;;;7.88;4.00;;;;;;;14.70;60.55;96765.38;10206587;28;20062;-57
2022/12/10 08:46:41;;;;;;;12.35;4.78;;;;;;;14.95;59.97;96770.63;10205357;28;20110;-57
2022/12/10 08:51:40;;;;;;;;;;;;;;;15.13;59.01;96769.16;10202544;28;20058;-57
2022/12/10 08:56:39;;;;;;;11.57;5.40;;;;;;;15.35;58.45;96742.25;10201760;28;20037;-57
2022/12/10 09:01:38;;;;;;;;;;;;;;;15.51;57.64;96745.16;10205055;28;20138;-57
2022/12/10 09:06:37;;;;;;;12.20;6.30;;;;;;;15.81;57.08;96745.78;10205346;28;20009;-57
2022/12/10 09:11:36;;;;;;;42.78;34.08;;;;;;;16.12;56.51;96728.91;10205419;28;20555;-57
2022/12/10 09:16:36;;;;;;;;;;;;;;;16.26;55.05;96711.72;10206198;28;20559;-57
2022/12/10 09:21:35;;;;;;;;;;;;;;;16.40;54.80;96702.47;10206522;28;19953;-57
2022/12/10 09:26:34;;;;;;;10.87;6.23;;;;;;;16.44;54.51;96704.91;10205149;28;19909;-57
2022/12/10 09:31:33;;;;;;;;;;;;;;;16.42;54.66;96691.00;10205965;28;20451;-57
2022/12/10 09:36:31;;;;;;;10.23;6.35;;;;;;;16.23;54.61;96664.75;10204598;28;20016;-57
2022/12/10 09:41:30;;;;;;;;;;;;;;;16.10;54.75;96653.06;10205010;28;20034;-58
2022/12/10 09:46:58;;;;;;;19.73;10.95;;;;;;;16.01;55.26;96649.03;10204821;28;19921;-57
2022/12/10 09:52:01;;;;;;;22.35;13.55;;;;;;;16.03;55.24;96647.22;10203253;28;20659;-57
2022/12/10 09:57:03;;;;;;;12.15;4.40;;;;;;;16.01;54.62;96651.66;10205234;28;20117;-57
2022/12/10 10:02:20;;;;;;;8.07;3.90;;;;;;;15.91;54.86;96655.56;10204630;28;20145;-58
2022/12/10 10:07:23;;;;;;;17.00;4.30;;;;;;;15.91;54.84;96636.41;10206126;28;20129;-57
2022/12/10 10:12:22;;;;;;;9.02;4.80;;;;;;;16.20;54.84;96635.22;10212549;28;20445;-57
2022/12/10 10:17:35;;;;;;;;;;;;;;;16.30;54.61;96634.78;10214377;28;20550;-57
2022/12/10 10:22:33;;;;;;;7.80;4.47;;;;;;;16.44;54.43;96615.88;10211803;28;19968;-57
2022/12/10 10:27:33;;;;;;;;;;;;;;;16.52;54.15;96605.91;10212603;28;20043;-57
2022/12/10 10:32:34;;;;;;;11.73;5.27;;;;;;;16.61;54.36;96601.19;10212536;28;19968;-58
2022/12/10 10:37:33;;;;;;;23.73;14.85;;;;;;;16.70;54.16;96592.94;10211673;28;20078;-57
2022/12/10 10:42:40;;;;;;;;;;;;;;;16.73;54.03;96582.31;10212528;28;20062;-57
2022/12/10 10:47:39;;;;;;;9.55;4.03;;;;;;;16.61;54.16;96581.09;10210881;28;20000;-57
2022/12/10 10:52:38;;;;;;;;;;;;;;;16.81;53.96;96567.13;10211977;28;20038;-57
2022/12/10 10:57:37;;;;;;;44.78;24.00;;;;;;;16.88;53.69;96563.31;10210516;28;20004;-58
2022/12/10 11:02:37;;;;;;;;;;;;;;;17.01;53.18;96560.16;10211377;28;20113;-58
2022/12/10 11:07:39;;;;;;;28.60;12.95;;;;;;;16.94;52.85;96546.47;10210148;28;19961;-57
2022/12/10 11:12:39;;;;;;;23.27;8.20;;;;;;;16.83;53.17;96546.94;10211400;28;20387;-57
2022/12/10 11:17:47;;;;;;;17.35;5.75;;;;;;;16.86;53.12;96543.34;10209607;28;20536;-57
2022/12/10 11:22:50;;;;;;;56.80;26.77;;;;;;;16.87;53.14;96530.16;10210385;28;20133;-57
2022/12/10 11:28:14;;;;;;;14.80;7.05;;;;;;;16.74;53.21;96523.75;10209187;28;20541;-57
2022/12/10 11:33:27;;;;;;;8.27;4.05;;;;;;;16.76;53.48;96514.06;10209537;28;20520;-57
2022/12/10 11:38:39;;;;;;;5.57;3.08;;;;;;;16.85;53.21;96499.72;10209093;28;20573;-57
2022/12/10 11:43:54;;;;;;;8.50;3.80;;;;;;;16.88;52.57;96502.19;10209202;28;20137;-57
2022/12/10 11:49:05;;;;;;;7.78;3.65;;;;;;;16.99;52.59;96491.22;10209216;28;20387;-57
2022/12/10 11:54:26;;;;;;;4.22;3.28;;;;;;;17.04;52.32;96479.59;10209109;28;20129;-57
2022/12/10 11:59:51;;;;;;;9.02;3.20;;;;;;;17.08;52.15;96485.56;10208525;28;20137;-57
2022/12/10 12:05:21;;;;;;;7.68;3.25;;;;;;;17.03;51.89;96477.91;10208576;28;20493;-57
2022/12/10 12:10:48;;;;;;;7.65;3.08;;;;;;;17.07;52.44;96473.34;10235180;28;20690;-57
2022/12/10 12:15:53;;;;;;;9.68;4.20;;;;;;;17.09;52.18;96461.03;10208081;28;20669;-57
2022/12/10 12:20:56;;;;;;;16.67;5.88;;;;;;;17.13;52.19;96458.19;10207557;28;20134;-57
2022/12/10 12:26:03;;;;;;;9.90;6.00;;;;;;;17.20;52.08;96463.16;10207079;28;20077;-57
2022/12/10 12:31:09;;;;;;;7.85;5.07;;;;;;;17.35;51.24;96455.38;10206359;28;20054;-58
2022/12/10 12:36:29;;;;;;;9.65;3.55;;;;;;;17.44;51.46;96445.34;10207793;28;20073;-58
2022/12/10 12:41:34;;;;;;;6.07;3.75;;;;;;;17.47;50.97;96427.72;10206637;28;20738;-58
2022/12/10 12:46:40;;;;;;;8.20;3.53;;;;;;;17.45;51.12;96419.06;10206684;28;20122;-58
2022/12/10 12:51:49;;;;;;;8.98;2.95;;;;;;;17.38;51.01;96422.06;10207288;28;20070;-57
2022/12/10 12:57:13;;;;;;;12.80;5.15;;;;;;;17.41;51.26;96420.13;10205662;28;20121;-57
2022/12/10 13:02:38;;;;;;;13.52;6.90;;;;;;;17.24;51.49;96412.25;10206062;28;20170;-57
2022/12/10 13:07:37;;;;;;;11.15;4.53;;;;;;;17.12;51.81;96411.94;10206006;28;20058;-57
2022/12/10 13:12:46;;;;;;;9.73;4.00;;;;;;;17.08;52.14;96396.44;10206258;28;20034;-57
2022/12/10 13:18:04;;;;;;;13.35;6.15;;;;;;;16.91;52.61;96387.63;10206179;28;20482;-57
2022/12/10 13:23:25;;;;;;;10.40;4.95;;;;;;;16.71;53.04;96385.91;10201369;28;20479;-57
2022/12/10 13:28:35;;;;;;;8.77;5.88;;;;;;;16.57;53.47;96384.88;10204189;28;20156;-58
2022/12/10 13:34:09;;;;;;;10.73;4.40;;;;;;;16.48;54.18;96381.75;10205057;28;20058;-57
2022/12/10 13:39:08;;;;;;;10.30;4.40;;;;;;;16.37;54.26;96389.28;10204874;28;20125;-57
2022/12/10 13:44:25;;;;;;;;;;;;;;;16.19;54.55;96364.78;10204992;28;20057;-57
2022/12/10 13:49:30;;;;;;;10.65;4.95;;;;;;;16.04;55.19;96355.88;10204409;28;20374;-58
2022/12/10 13:54:36;;;;;;;8.55;4.25;;;;;;;15.91;55.68;96349.47;10204429;28;20074;-57
2022/12/10 13:59:48;;;;;;;11.68;4.90;;;;;;;15.86;55.83;96335.75;10205141;28;20138;-57
2022/12/10 14:05:08;;;;;;;10.05;6.47;;;;;;;15.79;56.07;96334.34;10204105;28;20101;-57
2022/12/10 14:10:15;;;;;;;10.50;4.97;;;;;;;15.73;56.59;96329.34;10204807;28;20045;-57
2022/12/10 14:15:23;;;;;;;10.98;5.20;;;;;;;15.61;56.83;96344.63;10204164;28;20137;-58
2022/12/10 14:20:25;;;;;;;11.68;6.32;;;;;;;15.54;56.90;96334.53;10204654;28;20134;-57
2022/12/10 14:25:24;;;;;;;10.73;4.63;;;;;;;15.41;56.62;96314.16;10204614;28;20479;-57
2022/12/10 14:30:26;;;;;;;13.70;5.57;;;;;;;15.37;57.04;96307.34;10203863;28;20460;-57
2022/12/10 14:35:27;;;;;;;15.13;7.13;;;;;;;15.38;57.03;96300.34;10204474;28;20074;-57
2022/12/10 14:40:36;;;;;;;9.32;4.90;;;;;;;15.17;57.09;96262.94;10204217;28;20126;-59
2022/12/10 14:45:44;;;;;;;133.82;87.88;;;;;;;15.22;57.52;96294.94;10203622;28;20122;-58
2022/12/10 14:50:45;;;;;;;16.77;10.65;;;;;;;15.17;57.77;96282.06;10204927;28;20062;-58
2022/12/10 14:55:46;;;;;;;21.40;14.40;;;;;;;15.08;58.23;96282.44;10207961;28;20066;-57
2022/12/10 15:00:46;;;;;;;20.48;11.68;;;;;;;15.05;58.53;96282.59;10211003;28;20569;-58
2022/12/10 15:05:55;;;;;;;24.52;17.45;;;;;;;15.00;59.09;96279.34;10210487;28;20070;-58
2022/12/10 15:11:00;;;;;;;12.45;7.60;;;;;;;14.95;59.38;96286.53;10210785;28;20157;-58
2022/12/10 15:15:59;;;;;;;9.35;4.53;;;;;;;14.86;60.26;96281.69;10209701;28;20445;-58
2022/12/10 15:21:13;;;;;;;;;;;;;;;14.78;60.02;96285.47;10211038;28;20580;-58
2022/12/10 15:26:18;;;;;;;16.50;5.35;;;;;;;14.81;59.85;96282.72;10207172;28;19961;-58
2022/12/10 15:31:26;;;;;;;12.02;7.10;;;;;;;14.75;60.23;96275.13;10210018;28;20074;-58
2022/12/10 15:36:30;;;;;;;10.07;5.47;;;;;;;14.71;60.58;96263.13;10210245;28;20540;-58
2022/12/10 15:41:53;;;;;;;18.45;11.80;;;;;;;14.64;60.40;96269.47;10209009;28;20154;-58
2022/12/10 15:47:09;;;;;;;12.48;10.10;;;;;;;14.63;60.59;96273.00;10208847;28;20113;-58
2022/12/10 15:52:26;;;;;;;10.18;5.65;;;;;;;14.61;61.38;96266.97;10208130;28;20462;-58
2022/12/10 15:57:26;;;;;;;13.45;8.77;;;;;;;14.57;61.50;96262.81;10208149;28;20464;-58
2022/12/10 16:02:34;;;;;;;14.05;5.97;;;;;;;14.47;61.97;96246.66;10208753;28;20569;-57
2022/12/10 16:07:33;;;;;;;16.45;5.47;;;;;;;14.50;61.95;96240.44;10207294;28;20070;-57
2022/12/10 16:12:34;;;;;;;;;;;;;;;14.50;61.65;96237.84;10208183;28;20043;-58
2022/12/10 16:17:33;;;;;;;13.25;6.00;;;;;;;14.49;61.49;96223.09;10208131;28;19969;-57
2022/12/10 16:22:32;;;;;;;;;;;;;;;14.51;61.67;96216.06;10207744;28;20061;-57
2022/12/10 16:27:32;;;;;;;129.05;93.63;;;;;;;14.45;62.13;96198.03;10207635;28;19954;-57
2022/12/10 16:32:31;;;;;;;12.80;5.68;;;;;;;14.48;61.87;96192.72;10208622;28;20105;-57
2022/12/10 16:37:30;;;;;;;;;;;;;;;14.55;61.54;96194.16;10206714;28;20529;-57
2022/12/10 16:42:29;;;;;;;9.00;4.57;;;;;;;14.54;61.21;96197.66;10207061;28;19950;-57
2022/12/10 16:47:27;;;;;;;9.32;4.80;;;;;;;14.52;61.33;96194.25;10205943;28;20039;-57
2022/12/10 16:52:26;;;;;;;;;;;;;;;14.53;61.57;96190.75;10206028;28;20033;-57
2022/12/10 16:57:26;;;;;;;93.28;37.75;;;;;;;14.57;61.52;96181.88;10206426;28;20012;-57
2022/12/10 17:02:25;;;;;;;14.60;9.23;;;;;;;14.53;61.82;96186.38;10206115;28;20492;-57
2022/12/10 17:07:24;;;;;;;;;;;;;;;14.51;62.09;96180.38;10206424;28;20150;-57
2022/12/10 17:12:23;;;;;;;16.60;9.95;;;;;;;14.48;63.69;96170.06;10206375;28;19984;-57
2022/12/10 17:17:22;;;;;;;;;;;;;;;14.44;64.59;96167.66;10206161;28;20038;-57
2022/12/10 17:22:21;;;;;;;21.10;10.23;;;;;;;14.50;66.00;96170.84;10205341;28;19949;-59
2022/12/10 17:27:20;;;;;;;;;;;;;;;14.55;65.77;96176.72;10205224;28;20078;-57
2022/12/10 17:32:21;;;;;;;15.90;7.37;;;;;;;14.49;67.84;96168.28;10122701;28;20415;-57
2022/12/10 17:37:21;;;;;;;17.08;7.85;;;;;;;14.40;68.78;96162.56;10198525;28;20377;-57
2022/12/10 17:42:20;;;;;;;13.50;4.75;;;;;;;14.28;69.63;96157.84;10203994;28;20138;-57
2022/12/10 17:47:23;;;;;;;;;;;;;;;14.22;70.18;96154.63;10205040;28;20031;-57
2022/12/10 17:52:22;;;;;;;10.90;6.35;;;;;;;14.18;70.60;96151.31;10202491;28;19996;-57
2022/12/10 17:57:22;;;;;;;;;;;;;;;14.09;71.52;96141.25;10204064;28;20129;-57
2022/12/10 18:02:21;;;;;;;11.70;4.85;;;;;;;14.06;71.09;96130.94;10204082;28;19964;-57
2022/12/10 18:07:20;;;;;;;12.90;5.72;;;;;;;14.10;71.35;96140.31;10204141;28;20035;-57
2022/12/10 18:12:19;;;;;;;13.73;6.53;;;;;;;14.12;71.66;96131.53;10204435;28;20114;-57
2022/12/10 18:17:18;;;;;;;17.55;7.43;;;;;;;14.04;72.75;96128.41;10205032;28;20523;-57
2022/12/10 18:22:17;;;;;;;13.45;7.00;;;;;;;13.95;73.47;96111.34;10203385;28;20038;-57
2022/12/10 18:27:17;;;;;;;12.70;6.25;;;;;;;13.85;74.09;96099.59;10203177;28;20077;-57
2022/12/10 18:32:16;;;;;;;11.00;6.82;;;;;;;13.82;74.17;96081.50;10211263;28;20125;-57
2022/12/10 18:37:15;;;;;;;;;;;;;;;13.81;73.90;96074.56;10211338;28;20121;-58
2022/12/10 18:42:13;;;;;;;20.77;12.10;;;;;;;13.74;74.37;96067.91;10211622;28;19965;-57
2022/12/10 18:47:12;;;;;;;12.55;7.90;;;;;;;13.63;74.60;96041.41;10211429;28;20101;-57
2022/12/10 18:52:12;;;;;;;18.58;12.95;;;;;;;13.63;74.59;96041.41;10210476;28;20030;-57
2022/12/10 18:57:12;;;;;;;16.70;10.73;;;;;;;13.60;74.63;96042.41;10211147;28;20552;-57
2022/12/10 19:02:11;;;;;;;19.45;11.93;;;;;;;13.59;75.25;96032.91;10210988;28;20125;-58
2022/12/10 19:07:12;;;;;;;18.30;11.82;;;;;;;13.54;75.01;96038.28;10209773;28;20038;-57
2022/12/10 19:12:11;;;;;;;20.58;12.10;;;;;;;13.55;75.12;96031.31;10210306;28;20508;-57
2022/12/10 19:17:10;;;;;;;18.92;10.45;;;;;;;13.44;76.03;96016.06;10209416;28;20078;-58
2022/12/10 19:22:09;;;;;;;61.13;40.63;;;;;;;13.29;76.99;96014.09;10209097;28;20118;-57
2022/12/10 19:27:09;;;;;;;46.55;27.92;;;;;;;13.18;77.68;96006.69;10209330;28;20041;-57
2022/12/10 19:32:08;;;;;;;32.38;20.27;;;;;;;13.08;77.85;95997.56;10209873;28;20741;-58
2022/12/10 19:37:09;;;;;;;38.35;25.10;;;;;;;13.21;77.22;96000.50;10209026;28;20114;-59
2022/12/10 19:42:08;;;;;;;16.52;8.98;;;;;;;13.31;75.42;95965.38;10209422;28;20126;-58
2022/12/10 19:47:15;;;;;;;23.73;15.00;;;;;;;13.46;74.98;95964.75;10210062;28;20069;-58
2022/12/10 19:52:14;;;;;;;17.50;9.98;;;;;;;13.62;74.29;95954.56;10208044;28;20117;-58
2022/12/10 19:57:14;;;;;;;53.47;27.58;;;;;;;13.64;74.58;95951.91;10208468;28;20037;-58
2022/12/10 20:02:13;;;;;;;17.48;9.48;;;;;;;13.57;74.30;95927.84;10210285;28;20110;-59
2022/12/10 20:07:12;;;;;;;29.98;17.10;;;;;;;13.62;75.62;95930.28;10207711;28;20027;-58
2022/12/10 20:12:11;;;;;;;19.80;12.30;;;;;;;13.49;76.39;95909.91;10208799;28;20416;-57
2022/12/10 20:17:13;;;;;;;138.90;74.25;;;;;;;13.43;76.30;95907.56;10207904;28;20026;-57
2022/12/10 20:22:12;;;;;;;63.00;37.20;;;;;;;13.37;76.74;95886.97;10207894;28;20114;-57
2022/12/10 20:27:14;;;;;;;27.40;17.20;;;;;;;13.22;77.85;95893.66;10207878;28;20058;-57
2022/12/10 20:32:13;;;;;;;43.75;29.20;;;;;;;13.19;77.75;95892.94;10207331;28;20509;-57
2022/12/10 20:37:12;;;;;;;;;;;;;;;13.09;78.20;95869.91;10207846;28;20335;-58
2022/12/10 20:42:10;;;;;;;27.30;15.93;;;;;;;13.10;77.56;95870.75;10207720;28;19918;-62
2022/12/10 20:47:10;;;;;;;31.33;20.90;;;;;;;13.14;77.60;95854.94;10207587;28;20578;-57
2022/12/10 20:52:09;;;;;;;17.58;12.25;;;;;;;13.14;77.22;95854.06;10206602;28;20472;-58
2022/12/10 20:57:10;;;;;;;45.88;31.27;;;;;;;13.14;77.48;95846.25;10206234;28;20519;-59
2022/12/10 21:02:10;;;;;;;41.72;28.60;;;;;;;12.98;78.36;95821.75;10205963;28;20456;-58
2022/12/10 21:07:12;;;;;;;47.10;30.58;;;;;;;12.93;78.91;95808.97;10205285;28;20488;-58
2022/12/10 21:12:11;;;;;;;39.55;27.13;;;;;;;12.82;79.24;95780.75;10206722;28;20154;-58
2022/12/10 21:17:11;;;;;;;45.85;32.83;;;;;;;12.80;79.26;95766.13;10205407;28;20117;-58
2022/12/10 21:22:12;;;;;;;51.17;35.08;;;;;;;12.76;79.23;95760.19;10221614;28;20121;-59
2022/12/10 21:27:11;;;;;;;42.45;30.58;;;;;;;12.57;79.91;95769.66;10205796;28;20137;-58
2022/12/10 21:32:10;;;;;;;40.25;27.17;;;;;;;12.53;79.79;95771.53;10206769;28;20074;-58
2022/12/10 21:37:09;;;;;;;39.70;27.02;;;;;;;12.52;79.74;95772.44;10205044;28;20026;-58
2022/12/10 21:47:29;;;;;;;30.02;20.40;;;;;;;12.46;80.51;95746.66;10204258;28;20062;-58
2022/12/10 21:52:28;;;;;;;21.52;15.18;;;;;;;12.45;80.09;95703.38;10204780;28;20023;-58
2022/12/10 21:57:27;;;;;;;20.98;14.80;;;;;;;12.48;79.69;95714.47;10205433;28;20436;-58
2022/12/10 22:02:26;;;;;;;51.33;32.53;;;;;;;12.39;80.27;95677.59;10203566;28;20031;-58
2022/12/10 22:07:26;;;;;;;32.42;21.48;;;;;;;12.41;79.93;95681.81;10204853;28;20105;-58
2022/12/10 22:12:25;;;;;;;27.40;18.15;;;;;;;12.33;80.15;95672.69;10204546;28;20484;-58
2022/12/10 22:17:24;;;;;;;42.40;27.40;;;;;;;12.28;79.83;95670.25;10204944;28;20078;-58
2022/12/10 22:22:23;;;;;;;30.25;21.33;;;;;;;12.27;80.03;95661.63;10205061;28;20126;-58
2022/12/10 22:27:23;;;;;;;21.00;13.35;;;;;;;12.27;80.30;95647.72;10204468;28;20031;-58
2022/12/10 22:32:21;;;;;;;23.73;16.27;;;;;;;12.34;79.71;95643.13;10203824;28;20066;-58
2022/12/10 22:37:20;;;;;;;20.63;12.77;;;;;;;12.42;79.44;95621.13;10203968;28;20041;-58
2022/12/10 22:42:20;;;;;;;24.73;15.57;;;;;;;12.46;79.20;95598.41;10204274;28;20148;-58
2022/12/10 22:47:19;;;;;;;11.65;7.38;;;;;;;12.45;79.06;95583.72;10204142;28;20098;-58
2022/12/10 22:52:18;;;;;;;9.82;5.88;;;;;;;12.38;79.03;95566.69;10204314;28;20061;-58
2022/12/10 22:57:17;;;;;;;15.65;11.15;;;;;;;12.40;78.93;95554.47;10203389;28;20121;-58
2022/12/10 23:02:16;;;;;;;10.02;4.82;;;;;;;12.53;78.35;95524.38;10204280;28;20043;-58
2022/12/10 23:07:16;;;;;;;9.55;3.58;;;;;;;12.67;77.60;95514.22;10204236;28;20066;-58
2022/12/10 23:17:32;;;;;;;5.68;3.10;;;;;;;13.06;76.00;95471.63;10205092;28;20070;-58
2022/12/10 23:22:33;;;;;;;7.07;2.95;;;;;;;13.19;75.07;95451.06;10207534;28;20054;-58
2022/12/10 23:27:32;;;;;;;12.63;3.92;;;;;;;13.27;74.53;95463.72;10207934;28;20107;-58
2022/12/10 23:32:31;;;;;;;6.70;3.50;;;;;;;13.23;74.15;95420.50;10209693;28;20105;-58
2022/12/10 23:37:30;;;;;;;9.43;2.97;;;;;;;13.43;73.65;95430.78;10209212;28;20109;-58
2022/12/10 23:42:30;;;;;;;6.72;3.20;;;;;;;13.49;73.22;95427.00;10209700;28;20114;-57
2022/12/10 23:47:28;;;;;;;;;;;;;;;13.52;73.12;95443.34;10209489;28;20150;-57
2022/12/10 23:52:27;;;;;;;7.68;2.90;;;;;;;13.54;72.92;95415.50;10208980;28;19914;-57